sensor_id;sensor_type;location;lat;lon;timestamp;P1;durP1;ratioP1;P2;durP2;ratioP2
45792;SDS011;31495;42.740;22.908;2023-06-24T00:00:56;14.50;;;9.85;;
45792;SDS011;31495;42.740;22.908;2023-06-24T00:01:55;12.75;;;8.63;;
45792;SDS011;31495;42.740;22.908;2023-06-24T00:02:55;17.00;;;10.00;;
45792;SDS011;31495;42.740;22.908;2023-06-24T00:03:55;12.77;;;8.73;;
45792;SDS011;31495;42.740;22.908;2023-06-24T00:04:54;12.38;;;9.45;;
45792;SDS011;31495;42.740;22.908;2023-06-24T00:05:59;12.40;;;8.35;;
45792;SDS011;31495;42.740;22.908;2023-06-24T00:07:02;18.75;;;8.90;;
45792;SDS011;31495;42.740;22.908;2023-06-24T00:08:01;14.43;;;9.77;;
45792;SDS011;31495;42.740;22.908;2023-06-24T00:09:01;13.43;;;9.40;;
45792;SDS011;31495;42.740;22.908;2023-06-24T00:10:00;13.45;;;9.15;;
45792;SDS011;31495;42.740;22.908;2023-06-24T00:11:03;15.55;;;9.60;;
45792;SDS011;31495;42.740;22.908;2023-06-24T00:12:02;13.10;;;9.23;;
45792;SDS011;31495;42.740;22.908;2023-06-24T00:13:02;12.30;;;9.35;;
45792;SDS011;31495;42.740;22.908;2023-06-24T00:14:02;12.63;;;8.45;;
45792;SDS011;31495;42.740;22.908;2023-06-24T00:15:01;12.05;;;8.10;;
45792;SDS011;31495;42.740;22.908;2023-06-24T00:16:00;11.82;;;8.68;;
45792;SDS011;31495;42.740;22.908;2023-06-24T00:17:00;18.20;;;9.60;;
45792;SDS011;31495;42.740;22.908;2023-06-24T00:17:59;12.82;;;8.40;;
45792;SDS011;31495;42.740;22.908;2023-06-24T00:19:04;13.35;;;9.20;;
45792;SDS011;31495;42.740;22.908;2023-06-24T00:20:04;13.32;;;8.70;;
45792;SDS011;31495;42.740;22.908;2023-06-24T00:21:06;16.35;;;9.15;;
45792;SDS011;31495;42.740;22.908;2023-06-24T00:22:06;12.00;;;8.85;;
45792;SDS011;31495;42.740;22.908;2023-06-24T00:23:05;17.15;;;9.10;;
45792;SDS011;31495;42.740;22.908;2023-06-24T00:24:05;15.07;;;9.05;;
45792;SDS011;31495;42.740;22.908;2023-06-24T00:25:04;15.82;;;9.75;;
45792;SDS011;31495;42.740;22.908;2023-06-24T00:26:04;12.93;;;8.65;;
45792;SDS011;31495;42.740;22.908;2023-06-24T00:27:04;10.02;;;8.90;;
45792;SDS011;31495;42.740;22.908;2023-06-24T00:28:04;11.48;;;9.20;;
45792;SDS011;31495;42.740;22.908;2023-06-24T00:29:04;14.32;;;9.15;;
45792;SDS011;31495;42.740;22.908;2023-06-24T00:30:03;13.88;;;8.95;;
45792;SDS011;31495;42.740;22.908;2023-06-24T00:31:03;12.25;;;9.13;;
45792;SDS011;31495;42.740;22.908;2023-06-24T00:32:02;13.50;;;9.38;;
45792;SDS011;31495;42.740;22.908;2023-06-24T00:33:02;12.80;;;9.40;;
45792;SDS011;31495;42.740;22.908;2023-06-24T00:34:01;15.60;;;9.77;;
45792;SDS011;31495;42.740;22.908;2023-06-24T00:35:01;14.77;;;9.75;;
45792;SDS011;31495;42.740;22.908;2023-06-24T00:36:00;15.18;;;9.90;;
45792;SDS011;31495;42.740;22.908;2023-06-24T00:37:00;17.25;;;9.80;;
45792;SDS011;31495;42.740;22.908;2023-06-24T00:38:02;14.40;;;9.60;;
45792;SDS011;31495;42.740;22.908;2023-06-24T00:39:01;12.35;;;9.07;;
45792;SDS011;31495;42.740;22.908;2023-06-24T00:40:04;15.40;;;9.55;;
45792;SDS011;31495;42.740;22.908;2023-06-24T00:41:05;18.20;;;9.82;;
45792;SDS011;31495;42.740;22.908;2023-06-24T00:42:05;13.73;;;9.50;;
45792;SDS011;31495;42.740;22.908;2023-06-24T00:43:05;14.45;;;9.68;;
45792;SDS011;31495;42.740;22.908;2023-06-24T00:45:06;13.90;;;8.45;;
45792;SDS011;31495;42.740;22.908;2023-06-24T00:46:07;14.88;;;10.23;;
45792;SDS011;31495;42.740;22.908;2023-06-24T00:47:07;15.82;;;9.65;;
45792;SDS011;31495;42.740;22.908;2023-06-24T00:48:07;15.15;;;9.48;;
45792;SDS011;31495;42.740;22.908;2023-06-24T00:49:07;14.80;;;9.32;;
45792;SDS011;31495;42.740;22.908;2023-06-24T00:50:06;17.75;;;9.93;;
45792;SDS011;31495;42.740;22.908;2023-06-24T00:51:06;13.70;;;10.23;;
45792;SDS011;31495;42.740;22.908;2023-06-24T00:52:06;14.50;;;9.88;;
45792;SDS011;31495;42.740;22.908;2023-06-24T00:53:18;14.77;;;9.73;;
45792;SDS011;31495;42.740;22.908;2023-06-24T00:54:17;15.73;;;10.20;;
45792;SDS011;31495;42.740;22.908;2023-06-24T00:55:17;12.70;;;9.45;;
45792;SDS011;31495;42.740;22.908;2023-06-24T00:56:16;14.30;;;9.70;;
45792;SDS011;31495;42.740;22.908;2023-06-24T00:58:22;14.00;;;10.00;;
45792;SDS011;31495;42.740;22.908;2023-06-24T00:59:22;14.18;;;8.93;;
45792;SDS011;31495;42.740;22.908;2023-06-24T01:00:21;18.98;;;10.40;;
45792;SDS011;31495;42.740;22.908;2023-06-24T01:01:22;16.45;;;10.23;;
45792;SDS011;31495;42.740;22.908;2023-06-24T01:02:23;15.18;;;11.23;;
45792;SDS011;31495;42.740;22.908;2023-06-24T01:03:26;14.60;;;10.70;;
45792;SDS011;31495;42.740;22.908;2023-06-24T01:04:28;14.77;;;9.75;;
45792;SDS011;31495;42.740;22.908;2023-06-24T01:05:28;16.35;;;9.35;;
45792;SDS011;31495;42.740;22.908;2023-06-24T01:06:28;14.05;;;10.25;;
45792;SDS011;31495;42.740;22.908;2023-06-24T01:07:29;16.80;;;11.18;;
45792;SDS011;31495;42.740;22.908;2023-06-24T01:08:30;14.80;;;10.98;;
45792;SDS011;31495;42.740;22.908;2023-06-24T01:09:30;18.33;;;10.82;;
45792;SDS011;31495;42.740;22.908;2023-06-24T01:10:30;17.63;;;11.40;;
45792;SDS011;31495;42.740;22.908;2023-06-24T01:11:30;13.50;;;9.77;;
45792;SDS011;31495;42.740;22.908;2023-06-24T01:12:29;18.85;;;10.27;;
45792;SDS011;31495;42.740;22.908;2023-06-24T01:13:29;16.15;;;11.77;;
45792;SDS011;31495;42.740;22.908;2023-06-24T01:14:28;16.10;;;11.05;;
45792;SDS011;31495;42.740;22.908;2023-06-24T01:15:27;16.23;;;9.60;;
45792;SDS011;31495;42.740;22.908;2023-06-24T01:20:32;13.48;;;9.65;;
45792;SDS011;31495;42.740;22.908;2023-06-24T01:21:51;14.25;;;10.18;;
45792;SDS011;31495;42.740;22.908;2023-06-24T01:25:44;16.52;;;11.18;;
45792;SDS011;31495;42.740;22.908;2023-06-24T01:29:22;16.73;;;11.60;;
45792;SDS011;31495;42.740;22.908;2023-06-24T01:33:05;16.77;;;10.73;;
45792;SDS011;31495;42.740;22.908;2023-06-24T01:35:31;15.75;;;10.18;;
45792;SDS011;31495;42.740;22.908;2023-06-24T01:36:33;18.55;;;11.35;;
45792;SDS011;31495;42.740;22.908;2023-06-24T01:37:46;14.13;;;11.10;;
45792;SDS011;31495;42.740;22.908;2023-06-24T01:38:55;18.15;;;10.60;;
45792;SDS011;31495;42.740;22.908;2023-06-24T01:41:08;16.48;;;10.80;;
45792;SDS011;31495;42.740;22.908;2023-06-24T01:42:11;19.80;;;11.48;;
45792;SDS011;31495;42.740;22.908;2023-06-24T01:43:14;16.92;;;10.55;;
45792;SDS011;31495;42.740;22.908;2023-06-24T01:44:16;17.58;;;11.30;;
45792;SDS011;31495;42.740;22.908;2023-06-24T01:45:19;12.75;;;10.77;;
45792;SDS011;31495;42.740;22.908;2023-06-24T01:46:23;14.73;;;10.50;;
45792;SDS011;31495;42.740;22.908;2023-06-24T01:48:25;18.77;;;11.70;;
45792;SDS011;31495;42.740;22.908;2023-06-24T01:49:28;15.30;;;11.02;;
45792;SDS011;31495;42.740;22.908;2023-06-24T01:50:30;14.32;;;10.25;;
45792;SDS011;31495;42.740;22.908;2023-06-24T01:51:32;22.10;;;11.27;;
45792;SDS011;31495;42.740;22.908;2023-06-24T01:52:35;15.15;;;10.27;;
45792;SDS011;31495;42.740;22.908;2023-06-24T01:53:36;15.57;;;11.48;;
45792;SDS011;31495;42.740;22.908;2023-06-24T01:54:41;16.25;;;11.25;;
45792;SDS011;31495;42.740;22.908;2023-06-24T01:55:41;18.95;;;11.10;;
45792;SDS011;31495;42.740;22.908;2023-06-24T01:56:43;16.75;;;10.80;;
45792;SDS011;31495;42.740;22.908;2023-06-24T01:57:44;20.52;;;10.40;;
45792;SDS011;31495;42.740;22.908;2023-06-24T01:58:47;15.05;;;10.38;;
45792;SDS011;31495;42.740;22.908;2023-06-24T01:59:51;18.13;;;10.52;;
45792;SDS011;31495;42.740;22.908;2023-06-24T02:00:54;17.10;;;11.57;;
45792;SDS011;31495;42.740;22.908;2023-06-24T02:01:55;15.02;;;10.48;;
45792;SDS011;31495;42.740;22.908;2023-06-24T02:02:56;16.65;;;10.90;;
45792;SDS011;31495;42.740;22.908;2023-06-24T02:03:56;15.48;;;11.32;;
45792;SDS011;31495;42.740;22.908;2023-06-24T02:04:56;16.55;;;10.55;;
45792;SDS011;31495;42.740;22.908;2023-06-24T02:05:56;20.10;;;11.40;;
45792;SDS011;31495;42.740;22.908;2023-06-24T02:07:01;19.00;;;10.60;;
45792;SDS011;31495;42.740;22.908;2023-06-24T02:08:02;18.95;;;11.57;;
45792;SDS011;31495;42.740;22.908;2023-06-24T02:09:03;20.52;;;10.82;;
45792;SDS011;31495;42.740;22.908;2023-06-24T02:10:05;15.98;;;11.60;;
45792;SDS011;31495;42.740;22.908;2023-06-24T02:11:07;18.58;;;10.60;;
45792;SDS011;31495;42.740;22.908;2023-06-24T02:12:08;16.05;;;10.35;;
45792;SDS011;31495;42.740;22.908;2023-06-24T02:13:09;15.50;;;10.32;;
45792;SDS011;31495;42.740;22.908;2023-06-24T02:14:10;14.43;;;10.18;;
45792;SDS011;31495;42.740;22.908;2023-06-24T02:15:13;19.52;;;10.52;;
45792;SDS011;31495;42.740;22.908;2023-06-24T02:16:14;19.20;;;11.55;;
45792;SDS011;31495;42.740;22.908;2023-06-24T02:17:15;14.23;;;10.88;;
45792;SDS011;31495;42.740;22.908;2023-06-24T02:18:16;15.13;;;11.20;;
45792;SDS011;31495;42.740;22.908;2023-06-24T02:19:17;14.82;;;11.75;;
45792;SDS011;31495;42.740;22.908;2023-06-24T02:20:17;15.65;;;12.35;;
45792;SDS011;31495;42.740;22.908;2023-06-24T02:21:20;18.23;;;11.27;;
45792;SDS011;31495;42.740;22.908;2023-06-24T02:22:20;15.48;;;11.13;;
45792;SDS011;31495;42.740;22.908;2023-06-24T02:23:21;17.15;;;11.18;;
45792;SDS011;31495;42.740;22.908;2023-06-24T02:24:22;16.48;;;11.38;;
45792;SDS011;31495;42.740;22.908;2023-06-24T02:25:23;13.77;;;10.45;;
45792;SDS011;31495;42.740;22.908;2023-06-24T02:26:25;16.35;;;10.85;;
45792;SDS011;31495;42.740;22.908;2023-06-24T02:27:25;17.15;;;11.43;;
45792;SDS011;31495;42.740;22.908;2023-06-24T02:28:25;15.88;;;10.70;;
45792;SDS011;31495;42.740;22.908;2023-06-24T02:29:25;15.15;;;10.35;;
45792;SDS011;31495;42.740;22.908;2023-06-24T02:30:26;18.63;;;10.13;;
45792;SDS011;31495;42.740;22.908;2023-06-24T02:31:27;15.18;;;11.93;;
45792;SDS011;31495;42.740;22.908;2023-06-24T02:32:27;18.83;;;10.90;;
45792;SDS011;31495;42.740;22.908;2023-06-24T02:33:26;15.82;;;10.38;;
45792;SDS011;31495;42.740;22.908;2023-06-24T02:34:26;17.15;;;11.13;;
45792;SDS011;31495;42.740;22.908;2023-06-24T02:35:26;17.35;;;11.93;;
45792;SDS011;31495;42.740;22.908;2023-06-24T02:36:26;15.70;;;11.63;;
45792;SDS011;31495;42.740;22.908;2023-06-24T02:37:25;15.82;;;11.45;;
45792;SDS011;31495;42.740;22.908;2023-06-24T02:38:25;18.35;;;11.35;;
45792;SDS011;31495;42.740;22.908;2023-06-24T02:39:24;15.23;;;10.48;;
45792;SDS011;31495;42.740;22.908;2023-06-24T02:40:24;14.43;;;10.52;;
45792;SDS011;31495;42.740;22.908;2023-06-24T02:41:24;15.60;;;11.02;;
45792;SDS011;31495;42.740;22.908;2023-06-24T02:42:24;15.13;;;11.30;;
45792;SDS011;31495;42.740;22.908;2023-06-24T02:43:23;13.25;;;10.30;;
45792;SDS011;31495;42.740;22.908;2023-06-24T02:44:23;13.95;;;10.73;;
45792;SDS011;31495;42.740;22.908;2023-06-24T02:45:22;21.08;;;11.40;;
45792;SDS011;31495;42.740;22.908;2023-06-24T02:46:22;16.55;;;10.88;;
45792;SDS011;31495;42.740;22.908;2023-06-24T02:47:23;15.43;;;10.80;;
45792;SDS011;31495;42.740;22.908;2023-06-24T02:48:23;19.27;;;12.82;;
45792;SDS011;31495;42.740;22.908;2023-06-24T02:49:24;18.30;;;11.23;;
45792;SDS011;31495;42.740;22.908;2023-06-24T02:50:24;13.90;;;10.70;;
45792;SDS011;31495;42.740;22.908;2023-06-24T02:51:25;15.50;;;11.48;;
45792;SDS011;31495;42.740;22.908;2023-06-24T02:52:25;18.70;;;10.88;;
45792;SDS011;31495;42.740;22.908;2023-06-24T02:53:28;15.00;;;10.02;;
45792;SDS011;31495;42.740;22.908;2023-06-24T02:54:28;15.05;;;10.35;;
45792;SDS011;31495;42.740;22.908;2023-06-24T02:55:28;13.07;;;9.85;;
45792;SDS011;31495;42.740;22.908;2023-06-24T02:56:29;16.48;;;11.35;;
45792;SDS011;31495;42.740;22.908;2023-06-24T02:57:30;13.57;;;10.33;;
45792;SDS011;31495;42.740;22.908;2023-06-24T02:58:31;18.00;;;10.77;;
45792;SDS011;31495;42.740;22.908;2023-06-24T02:59:31;15.25;;;11.52;;
45792;SDS011;31495;42.740;22.908;2023-06-24T03:00:31;15.40;;;10.55;;
45792;SDS011;31495;42.740;22.908;2023-06-24T03:02:37;13.90;;;9.95;;
45792;SDS011;31495;42.740;22.908;2023-06-24T03:03:37;13.18;;;10.52;;
45792;SDS011;31495;42.740;22.908;2023-06-24T03:04:38;16.83;;;11.52;;
45792;SDS011;31495;42.740;22.908;2023-06-24T03:05:38;13.43;;;10.95;;
45792;SDS011;31495;42.740;22.908;2023-06-24T03:06:38;15.68;;;10.55;;
45792;SDS011;31495;42.740;22.908;2023-06-24T03:07:39;15.23;;;11.07;;
45792;SDS011;31495;42.740;22.908;2023-06-24T03:08:40;16.10;;;11.02;;
45792;SDS011;31495;42.740;22.908;2023-06-24T03:09:40;14.67;;;10.77;;
45792;SDS011;31495;42.740;22.908;2023-06-24T03:10:40;13.40;;;10.40;;
45792;SDS011;31495;42.740;22.908;2023-06-24T03:11:40;18.70;;;11.85;;
45792;SDS011;31495;42.740;22.908;2023-06-24T03:12:42;14.00;;;11.07;;
45792;SDS011;31495;42.740;22.908;2023-06-24T03:13:42;22.02;;;11.13;;
45792;SDS011;31495;42.740;22.908;2023-06-24T03:14:42;20.83;;;11.07;;
45792;SDS011;31495;42.740;22.908;2023-06-24T03:15:42;18.20;;;11.02;;
45792;SDS011;31495;42.740;22.908;2023-06-24T03:16:41;15.27;;;11.20;;
45792;SDS011;31495;42.740;22.908;2023-06-24T03:17:41;13.23;;;9.88;;
45792;SDS011;31495;42.740;22.908;2023-06-24T03:18:41;15.25;;;11.05;;
45792;SDS011;31495;42.740;22.908;2023-06-24T03:19:41;15.25;;;11.27;;
45792;SDS011;31495;42.740;22.908;2023-06-24T03:20:42;18.27;;;12.50;;
45792;SDS011;31495;42.740;22.908;2023-06-24T03:21:42;15.50;;;11.38;;
45792;SDS011;31495;42.740;22.908;2023-06-24T03:22:41;13.20;;;10.15;;
45792;SDS011;31495;42.740;22.908;2023-06-24T03:23:41;16.10;;;11.55;;
45792;SDS011;31495;42.740;22.908;2023-06-24T03:24:40;15.52;;;11.48;;
45792;SDS011;31495;42.740;22.908;2023-06-24T03:25:40;15.18;;;10.80;;
45792;SDS011;31495;42.740;22.908;2023-06-24T03:26:39;18.10;;;10.85;;
45792;SDS011;31495;42.740;22.908;2023-06-24T03:27:39;18.38;;;11.90;;
45792;SDS011;31495;42.740;22.908;2023-06-24T03:28:38;15.73;;;12.05;;
45792;SDS011;31495;42.740;22.908;2023-06-24T03:29:38;18.45;;;11.27;;
45792;SDS011;31495;42.740;22.908;2023-06-24T03:30:37;17.80;;;10.77;;
45792;SDS011;31495;42.740;22.908;2023-06-24T03:31:37;16.48;;;11.40;;
45792;SDS011;31495;42.740;22.908;2023-06-24T03:32:37;18.45;;;12.00;;
45792;SDS011;31495;42.740;22.908;2023-06-24T03:33:36;18.98;;;12.88;;
45792;SDS011;31495;42.740;22.908;2023-06-24T03:34:35;16.50;;;11.45;;
45792;SDS011;31495;42.740;22.908;2023-06-24T03:35:35;17.25;;;11.60;;
45792;SDS011;31495;42.740;22.908;2023-06-24T03:36:34;13.93;;;11.25;;
45792;SDS011;31495;42.740;22.908;2023-06-24T03:37:37;17.40;;;11.25;;
45792;SDS011;31495;42.740;22.908;2023-06-24T03:38:36;15.18;;;10.65;;
45792;SDS011;31495;42.740;22.908;2023-06-24T03:39:36;16.70;;;10.93;;
45792;SDS011;31495;42.740;22.908;2023-06-24T03:40:36;15.20;;;11.02;;
45792;SDS011;31495;42.740;22.908;2023-06-24T03:41:35;16.55;;;11.05;;
45792;SDS011;31495;42.740;22.908;2023-06-24T03:42:35;20.20;;;10.85;;
45792;SDS011;31495;42.740;22.908;2023-06-24T03:43:34;15.52;;;11.32;;
45792;SDS011;31495;42.740;22.908;2023-06-24T03:44:34;14.25;;;10.55;;
45792;SDS011;31495;42.740;22.908;2023-06-24T03:45:33;16.33;;;11.35;;
45792;SDS011;31495;42.740;22.908;2023-06-24T03:46:32;18.10;;;11.18;;
45792;SDS011;31495;42.740;22.908;2023-06-24T03:47:32;16.40;;;11.38;;
45792;SDS011;31495;42.740;22.908;2023-06-24T03:48:31;19.05;;;11.60;;
45792;SDS011;31495;42.740;22.908;2023-06-24T03:49:31;17.85;;;11.60;;
45792;SDS011;31495;42.740;22.908;2023-06-24T03:50:30;15.90;;;11.52;;
45792;SDS011;31495;42.740;22.908;2023-06-24T03:51:29;16.30;;;10.63;;
45792;SDS011;31495;42.740;22.908;2023-06-24T03:52:30;17.67;;;11.80;;
45792;SDS011;31495;42.740;22.908;2023-06-24T03:53:29;18.15;;;10.48;;
45792;SDS011;31495;42.740;22.908;2023-06-24T03:54:29;16.20;;;10.63;;
45792;SDS011;31495;42.740;22.908;2023-06-24T03:55:28;15.93;;;10.88;;
45792;SDS011;31495;42.740;22.908;2023-06-24T03:56:28;18.38;;;11.52;;
45792;SDS011;31495;42.740;22.908;2023-06-24T03:57:27;15.48;;;10.38;;
45792;SDS011;31495;42.740;22.908;2023-06-24T03:58:26;25.27;;;12.00;;
45792;SDS011;31495;42.740;22.908;2023-06-24T03:59:26;17.33;;;11.18;;
45792;SDS011;31495;42.740;22.908;2023-06-24T04:00:25;16.35;;;11.15;;
45792;SDS011;31495;42.740;22.908;2023-06-24T04:01:25;22.17;;;12.32;;
45792;SDS011;31495;42.740;22.908;2023-06-24T04:02:24;16.88;;;10.40;;
45792;SDS011;31495;42.740;22.908;2023-06-24T04:03:26;15.60;;;11.35;;
45792;SDS011;31495;42.740;22.908;2023-06-24T04:04:25;17.05;;;11.75;;
45792;SDS011;31495;42.740;22.908;2023-06-24T04:05:25;14.68;;;10.93;;
45792;SDS011;31495;42.740;22.908;2023-06-24T04:06:24;15.25;;;10.75;;
45792;SDS011;31495;42.740;22.908;2023-06-24T04:07:24;14.50;;;11.57;;
45792;SDS011;31495;42.740;22.908;2023-06-24T04:08:26;15.85;;;11.23;;
45792;SDS011;31495;42.740;22.908;2023-06-24T04:09:29;14.05;;;10.95;;
45792;SDS011;31495;42.740;22.908;2023-06-24T04:10:29;14.65;;;11.27;;
45792;SDS011;31495;42.740;22.908;2023-06-24T04:11:28;16.05;;;12.07;;
45792;SDS011;31495;42.740;22.908;2023-06-24T04:12:27;15.50;;;11.27;;
45792;SDS011;31495;42.740;22.908;2023-06-24T04:13:27;14.90;;;9.93;;
45792;SDS011;31495;42.740;22.908;2023-06-24T04:14:28;16.42;;;10.68;;
45792;SDS011;31495;42.740;22.908;2023-06-24T04:15:28;17.73;;;11.73;;
45792;SDS011;31495;42.740;22.908;2023-06-24T04:16:27;18.02;;;11.13;;
45792;SDS011;31495;42.740;22.908;2023-06-24T04:17:27;17.50;;;12.23;;
45792;SDS011;31495;42.740;22.908;2023-06-24T04:18:26;16.02;;;11.45;;
45792;SDS011;31495;42.740;22.908;2023-06-24T04:19:26;15.70;;;11.30;;
45792;SDS011;31495;42.740;22.908;2023-06-24T04:20:25;17.17;;;11.45;;
45792;SDS011;31495;42.740;22.908;2023-06-24T04:21:24;20.50;;;12.40;;
45792;SDS011;31495;42.740;22.908;2023-06-24T04:22:24;21.42;;;13.30;;
45792;SDS011;31495;42.740;22.908;2023-06-24T04:23:24;16.33;;;11.60;;
45792;SDS011;31495;42.740;22.908;2023-06-24T04:24:23;17.65;;;12.25;;
45792;SDS011;31495;42.740;22.908;2023-06-24T04:25:23;19.48;;;12.75;;
45792;SDS011;31495;42.740;22.908;2023-06-24T04:26:22;15.70;;;11.45;;
45792;SDS011;31495;42.740;22.908;2023-06-24T04:27:21;19.38;;;12.68;;
45792;SDS011;31495;42.740;22.908;2023-06-24T04:28:21;19.52;;;10.73;;
45792;SDS011;31495;42.740;22.908;2023-06-24T04:29:20;15.48;;;12.10;;
45792;SDS011;31495;42.740;22.908;2023-06-24T04:30:20;20.95;;;13.75;;
45792;SDS011;31495;42.740;22.908;2023-06-24T04:31:20;17.23;;;12.18;;
45792;SDS011;31495;42.740;22.908;2023-06-24T04:32:19;16.83;;;12.52;;
45792;SDS011;31495;42.740;22.908;2023-06-24T04:33:18;16.58;;;11.52;;
45792;SDS011;31495;42.740;22.908;2023-06-24T04:34:18;18.65;;;13.20;;
45792;SDS011;31495;42.740;22.908;2023-06-24T04:35:17;19.70;;;12.13;;
45792;SDS011;31495;42.740;22.908;2023-06-24T04:36:16;21.20;;;13.60;;
45792;SDS011;31495;42.740;22.908;2023-06-24T04:37:16;19.88;;;12.52;;
45792;SDS011;31495;42.740;22.908;2023-06-24T04:38:15;20.92;;;12.35;;
45792;SDS011;31495;42.740;22.908;2023-06-24T04:39:17;16.90;;;12.73;;
45792;SDS011;31495;42.740;22.908;2023-06-24T04:40:17;16.52;;;11.55;;
45792;SDS011;31495;42.740;22.908;2023-06-24T04:41:18;25.48;;;12.68;;
45792;SDS011;31495;42.740;22.908;2023-06-24T04:42:18;17.85;;;11.90;;
45792;SDS011;31495;42.740;22.908;2023-06-24T04:43:18;18.75;;;12.27;;
45792;SDS011;31495;42.740;22.908;2023-06-24T04:44:17;18.30;;;12.23;;
45792;SDS011;31495;42.740;22.908;2023-06-24T04:45:18;16.17;;;12.40;;
45792;SDS011;31495;42.740;22.908;2023-06-24T04:46:18;18.48;;;12.68;;
45792;SDS011;31495;42.740;22.908;2023-06-24T04:47:17;17.67;;;13.10;;
45792;SDS011;31495;42.740;22.908;2023-06-24T04:48:17;20.92;;;12.45;;
45792;SDS011;31495;42.740;22.908;2023-06-24T04:49:17;21.85;;;13.07;;
45792;SDS011;31495;42.740;22.908;2023-06-24T04:50:16;22.00;;;12.98;;
45792;SDS011;31495;42.740;22.908;2023-06-24T04:51:16;20.70;;;14.20;;
45792;SDS011;31495;42.740;22.908;2023-06-24T04:52:15;31.15;;;14.27;;
45792;SDS011;31495;42.740;22.908;2023-06-24T04:53:15;24.98;;;13.60;;
45792;SDS011;31495;42.740;22.908;2023-06-24T04:54:14;40.60;;;12.63;;
45792;SDS011;31495;42.740;22.908;2023-06-24T04:55:14;20.67;;;13.23;;
45792;SDS011;31495;42.740;22.908;2023-06-24T04:56:13;26.15;;;14.75;;
45792;SDS011;31495;42.740;22.908;2023-06-24T04:57:22;22.35;;;13.50;;
45792;SDS011;31495;42.740;22.908;2023-06-24T04:58:29;19.08;;;13.10;;
45792;SDS011;31495;42.740;22.908;2023-06-24T04:59:28;17.70;;;12.45;;
45792;SDS011;31495;42.740;22.908;2023-06-24T05:00:27;17.23;;;12.90;;
45792;SDS011;31495;42.740;22.908;2023-06-24T05:01:27;19.40;;;13.60;;
45792;SDS011;31495;42.740;22.908;2023-06-24T05:02:26;19.05;;;11.65;;
45792;SDS011;31495;42.740;22.908;2023-06-24T05:03:25;18.45;;;13.25;;
45792;SDS011;31495;42.740;22.908;2023-06-24T05:04:25;17.50;;;13.05;;
45792;SDS011;31495;42.740;22.908;2023-06-24T05:05:24;16.10;;;12.93;;
45792;SDS011;31495;42.740;22.908;2023-06-24T05:06:24;22.45;;;13.55;;
45792;SDS011;31495;42.740;22.908;2023-06-24T05:07:24;22.15;;;13.95;;
45792;SDS011;31495;42.740;22.908;2023-06-24T05:08:24;20.20;;;14.68;;
45792;SDS011;31495;42.740;22.908;2023-06-24T05:09:23;18.33;;;13.38;;
45792;SDS011;31495;42.740;22.908;2023-06-24T05:10:23;25.00;;;14.90;;
45792;SDS011;31495;42.740;22.908;2023-06-24T05:11:22;19.13;;;12.32;;
45792;SDS011;31495;42.740;22.908;2023-06-24T05:12:21;20.98;;;12.82;;
45792;SDS011;31495;42.740;22.908;2023-06-24T05:13:21;22.48;;;15.18;;
45792;SDS011;31495;42.740;22.908;2023-06-24T05:14:20;16.73;;;13.32;;
45792;SDS011;31495;42.740;22.908;2023-06-24T05:15:20;19.40;;;14.07;;
45792;SDS011;31495;42.740;22.908;2023-06-24T05:16:19;24.33;;;13.93;;
45792;SDS011;31495;42.740;22.908;2023-06-24T05:17:19;23.45;;;13.48;;
45792;SDS011;31495;42.740;22.908;2023-06-24T05:18:19;21.58;;;14.65;;
45792;SDS011;31495;42.740;22.908;2023-06-24T05:19:18;23.95;;;15.40;;
45792;SDS011;31495;42.740;22.908;2023-06-24T05:20:18;26.67;;;15.73;;
45792;SDS011;31495;42.740;22.908;2023-06-24T05:21:17;18.65;;;13.70;;
45792;SDS011;31495;42.740;22.908;2023-06-24T05:22:17;19.98;;;13.32;;
45792;SDS011;31495;42.740;22.908;2023-06-24T05:23:16;23.98;;;15.32;;
45792;SDS011;31495;42.740;22.908;2023-06-24T05:24:16;23.10;;;14.90;;
45792;SDS011;31495;42.740;22.908;2023-06-24T05:25:15;19.33;;;13.93;;
45792;SDS011;31495;42.740;22.908;2023-06-24T05:26:14;25.73;;;14.77;;
45792;SDS011;31495;42.740;22.908;2023-06-24T05:27:14;27.45;;;14.48;;
45792;SDS011;31495;42.740;22.908;2023-06-24T05:28:13;21.05;;;14.38;;
45792;SDS011;31495;42.740;22.908;2023-06-24T05:29:13;19.85;;;14.15;;
45792;SDS011;31495;42.740;22.908;2023-06-24T05:30:12;22.27;;;14.98;;
45792;SDS011;31495;42.740;22.908;2023-06-24T05:31:13;22.20;;;15.07;;
45792;SDS011;31495;42.740;22.908;2023-06-24T05:32:12;23.98;;;14.30;;
45792;SDS011;31495;42.740;22.908;2023-06-24T05:33:12;25.92;;;13.82;;
45792;SDS011;31495;42.740;22.908;2023-06-24T05:34:11;18.70;;;12.32;;
45792;SDS011;31495;42.740;22.908;2023-06-24T05:35:11;17.73;;;13.60;;
45792;SDS011;31495;42.740;22.908;2023-06-24T05:36:11;17.90;;;13.35;;
45792;SDS011;31495;42.740;22.908;2023-06-24T05:37:10;22.25;;;14.07;;
45792;SDS011;31495;42.740;22.908;2023-06-24T05:38:09;20.48;;;15.13;;
45792;SDS011;31495;42.740;22.908;2023-06-24T05:39:09;21.90;;;15.68;;
45792;SDS011;31495;42.740;22.908;2023-06-24T05:40:10;23.10;;;14.77;;
45792;SDS011;31495;42.740;22.908;2023-06-24T05:41:11;32.25;;;15.45;;
45792;SDS011;31495;42.740;22.908;2023-06-24T05:42:11;24.25;;;14.35;;
45792;SDS011;31495;42.740;22.908;2023-06-24T05:43:10;24.05;;;14.20;;
45792;SDS011;31495;42.740;22.908;2023-06-24T05:44:09;20.15;;;14.15;;
45792;SDS011;31495;42.740;22.908;2023-06-24T05:45:09;20.40;;;14.68;;
45792;SDS011;31495;42.740;22.908;2023-06-24T05:46:09;23.42;;;15.02;;
45792;SDS011;31495;42.740;22.908;2023-06-24T05:47:08;17.88;;;14.32;;
45792;SDS011;31495;42.740;22.908;2023-06-24T05:48:08;22.90;;;13.48;;
45792;SDS011;31495;42.740;22.908;2023-06-24T05:49:07;24.02;;;14.85;;
45792;SDS011;31495;42.740;22.908;2023-06-24T05:50:07;21.23;;;14.40;;
45792;SDS011;31495;42.740;22.908;2023-06-24T05:51:06;20.83;;;14.65;;
45792;SDS011;31495;42.740;22.908;2023-06-24T05:52:06;20.92;;;14.40;;
45792;SDS011;31495;42.740;22.908;2023-06-24T05:53:06;19.77;;;14.23;;
45792;SDS011;31495;42.740;22.908;2023-06-24T05:54:05;23.02;;;15.13;;
45792;SDS011;31495;42.740;22.908;2023-06-24T05:55:06;19.20;;;13.60;;
45792;SDS011;31495;42.740;22.908;2023-06-24T05:56:06;24.98;;;14.68;;
45792;SDS011;31495;42.740;22.908;2023-06-24T05:57:06;26.98;;;15.48;;
45792;SDS011;31495;42.740;22.908;2023-06-24T05:58:05;22.73;;;13.85;;
45792;SDS011;31495;42.740;22.908;2023-06-24T05:59:04;24.58;;;15.27;;
45792;SDS011;31495;42.740;22.908;2023-06-24T06:00:04;25.48;;;14.32;;
45792;SDS011;31495;42.740;22.908;2023-06-24T06:01:04;21.02;;;14.93;;
45792;SDS011;31495;42.740;22.908;2023-06-24T06:02:04;23.27;;;15.63;;
45792;SDS011;31495;42.740;22.908;2023-06-24T06:03:04;21.35;;;15.50;;
45792;SDS011;31495;42.740;22.908;2023-06-24T06:04:03;25.35;;;14.45;;
45792;SDS011;31495;42.740;22.908;2023-06-24T06:05:03;25.25;;;14.38;;
45792;SDS011;31495;42.740;22.908;2023-06-24T06:06:03;24.52;;;16.38;;
45792;SDS011;31495;42.740;22.908;2023-06-24T06:07:03;17.65;;;13.45;;
45792;SDS011;31495;42.740;22.908;2023-06-24T06:08:03;21.73;;;15.02;;